Time;durP1;ratioP1;P1;durP2;ratioP2;P2;SDS_P1;SDS_P2;PMS_P1;PMS_P2;Temp;Humidity;BMP_temperature;BMP_pressure;BME280_temperature;BME280_humidity;BME280_pressure;Samples;Min_cycle;Max_cycle;Signal;HPM_P1;HPM_P2
2021/07/31 00:01:57;;;;;;;1.55;1.45;;;;;;;15.70;77.10;99681.47;4996426;28;20454;-75
2021/07/31 00:04:23;;;;;;;1.92;1.75;;;;;;;15.64;77.23;99680.78;4987882;28;20037;-74
2021/07/31 00:06:48;;;;;;;1.73;1.23;;;;;;;15.73;76.91;99685.53;4973211;28;20046;-74
2021/07/31 00:09:16;;;;;;;1.77;1.30;;;;;;;15.69;77.06;99680.63;4990457;28;20037;-73
2021/07/31 00:11:42;;;;;;;1.27;1.20;;;;;;;15.68;77.13;99678.19;4987798;28;20026;-73
2021/07/31 00:14:10;;;;;;;1.85;1.23;;;;;;;15.53;77.12;99674.72;4996172;28;20035;-75
2021/07/31 00:16:38;;;;;;;2.30;1.35;;;;;;;15.51;77.26;99677.00;5004463;28;20030;-76
2021/07/31 00:19:17;;;;;;;;;;;;;;;;;;;;;
2021/07/31 00:21:42;;;;;;;1.38;1.30;;;;;;;15.45;77.17;99681.03;4991645;28;20102;-73
2021/07/31 00:24:08;;;;;;;1.15;1.15;;;;;;;15.39;77.20;99678.72;4968347;28;20073;-73
2021/07/31 00:26:34;;;;;;;1.73;1.08;;;;;;;15.38;77.66;99679.88;4968622;28;20159;-73
2021/07/31 00:29:02;;;;;;;1.55;1.40;;;;;;;15.31;77.42;99680.31;4994093;28;20499;-75
2021/07/31 00:31:29;;;;;;;1.80;1.10;;;;;;;15.26;77.63;99683.19;4996314;28;20018;-74
2021/07/31 00:33:55;;;;;;;1.45;1.35;;;;;;;15.20;78.01;99668.75;4996133;28;20071;-74
2021/07/31 00:36:28;;;;;;;2.15;1.38;;;;;;;15.21;77.80;99673.13;4984743;28;20090;-77
2021/07/31 00:38:53;;;;;;;1.67;1.30;;;;;;;15.25;78.35;99676.06;4976395;28;20033;-77
2021/07/31 00:41:21;;;;;;;1.27;1.23;;;;;;;15.11;78.56;99671.47;5001358;28;20022;-75
2021/07/31 00:43:47;;;;;;;3.35;1.80;;;;;;;15.14;78.25;99687.34;4978753;28;20022;-75
2021/07/31 00:46:16;;;;;;;2.30;2.20;;;;;;;15.09;79.14;99689.41;4993163;28;20034;-72
2021/07/31 00:48:41;;;;;;;4.43;1.40;;;;;;;15.07;79.09;99681.47;4982394;28;20018;-75
2021/07/31 00:51:10;;;;;;;2.15;2.05;;;;;;;14.91;80.30;99672.78;4985165;28;20113;-73
2021/07/31 00:53:37;;;;;;;1.90;1.80;;;;;;;14.90;80.31;99671.16;4993753;28;20057;-76
2021/07/31 01:00:36;;;;;;;1.88;1.80;;;;;;;15.05;80.24;99674.66;4964851;28;20042;-79
2021/07/31 01:03:27;;;;;;;2.15;1.83;;;;;;;14.83;80.20;99660.59;4958924;28;20041;-76
2021/07/31 01:05:52;;;;;;;2.53;2.42;;;;;;;14.92;80.39;99674.41;5001274;28;20062;-76
2021/07/31 01:08:18;;;;;;;1.70;1.60;;;;;;;14.95;80.41;99678.47;5000297;28;20042;-72
2021/07/31 01:10:46;;;;;;;2.00;1.90;;;;;;;14.87;80.25;99670.97;4995686;28;20041;-74
2021/07/31 01:13:52;;;;;;;;;;;;;;;;;;;;;
2021/07/31 01:16:30;;;;;;;2.35;2.22;;;;;;;14.74;80.47;99662.44;5002725;28;20118;-76
2021/07/31 01:22:32;;;;;;;2.35;2.25;;;;;;;14.64;80.71;99651.69;4971153;28;20039;-73
2021/07/31 01:25:38;;;;;;;2.30;2.20;;;;;;;14.77;80.96;99678.34;4957086;28;20041;-76
2021/07/31 01:28:16;;;;;;;2.25;2.15;;;;;;;14.72;81.33;99675.72;4980899;28;20465;-75
2021/07/31 01:31:12;;;;;;;;;;;;;;;;;;;;;
2021/07/31 01:33:38;;;;;;;2.72;2.53;;;;;;;14.65;81.37;99675.34;4984495;28;20133;-76
2021/07/31 01:36:06;;;;;;;3.05;2.40;;;;;;;14.59;81.03;99671.06;5000699;28;20058;-75
2021/07/31 01:38:31;;;;;;;2.38;2.28;;;;;;;14.56;81.35;99661.47;5004671;28;20022;-75
2021/07/31 01:41:02;;;;;;;2.63;2.53;;;;;;;14.56;81.14;99666.16;4993819;28;21146;-76
2021/07/31 01:43:37;;;;;;;;;;;;;;;;;;;;;
2021/07/31 01:46:05;;;;;;;5.55;3.00;;;;;;;14.47;81.48;99660.56;5000559;28;20114;-76
2021/07/31 01:48:31;;;;;;;3.17;3.08;;;;;;;14.62;81.41;99681.47;4999965;28;20061;-76
2021/07/31 01:50:56;;;;;;;2.95;2.85;;;;;;;14.59;81.74;99673.81;4982958;28;20034;-77
2021/07/31 01:53:24;;;;;;;6.88;3.20;;;;;;;14.60;81.35;99683.66;4976123;28;20023;-77
2021/07/31 01:55:52;;;;;;;3.10;3.00;;;;;;;14.60;81.77;99669.91;4994745;28;20027;-77
2021/07/31 01:58:26;;;;;;;3.40;2.70;;;;;;;14.61;81.42;99668.81;4967900;28;20018;-76
2021/07/31 02:00:53;;;;;;;5.23;2.53;;;;;;;14.57;81.04;99667.78;4980576;28;20026;-76
2021/07/31 02:03:26;;;;;;;4.25;2.10;;;;;;;14.64;80.87;99673.72;4968027;28;20376;-76
2021/07/31 02:05:54;;;;;;;3.00;2.80;;;;;;;14.58;81.13;99674.94;5001557;28;20053;-76
2021/07/31 02:08:20;;;;;;;2.10;2.00;;;;;;;14.50;80.95;99671.00;5000278;28;20036;-76
2021/07/31 02:10:48;;;;;;;2.53;2.42;;;;;;;14.51;80.86;99674.53;4998388;28;20061;-74
2021/07/31 02:16:26;;;;;;;2.70;2.60;;;;;;;14.39;81.30;99655.84;4984417;28;20045;-75
2021/07/31 02:18:53;;;;;;;2.40;2.30;;;;;;;14.49;81.14;99678.41;5002007;28;20120;-76
2021/07/31 02:21:19;;;;;;;3.15;3.05;;;;;;;14.55;81.45;99686.56;4983112;28;20033;-77
2021/07/31 02:23:48;;;;;;;2.97;2.88;;;;;;;14.54;81.24;99673.91;4976377;28;20026;-77
2021/07/31 02:26:14;;;;;;;2.47;2.38;;;;;;;14.65;81.11;99680.84;4985200;28;20034;-76
2021/07/31 02:28:54;;;;;;;;;;;;;;;;;;;;;
2021/07/31 02:31:25;;;;;;;5.75;2.72;;;;;;;14.80;81.43;99688.72;5000164;28;20105;-77
2021/07/31 02:33:50;;;;;;;2.58;2.47;;;;;;;14.77;80.77;99677.53;4985872;28;20049;-76
2021/07/31 02:36:19;;;;;;;2.88;2.78;;;;;;;14.85;81.23;99682.31;4992075;28;20030;-77
2021/07/31 02:38:45;;;;;;;4.10;2.67;;;;;;;14.78;80.78;99668.97;4981981;28;20022;-77
2021/07/31 02:41:10;;;;;;;3.97;3.58;;;;;;;14.75;80.96;99663.28;4960688;28;20053;-75
2021/07/31 02:43:36;;;;;;;3.42;3.20;;;;;;;14.73;81.54;99671.81;4978922;28;20026;-75
2021/07/31 02:46:45;;;;;;;;;;;;;;;;;;;;;
2021/07/31 02:49:26;;;;;;;3.00;2.90;;;;;;;14.74;81.51;99678.97;4995464;28;20124;-73
2021/07/31 02:55:26;;;;;;;5.18;3.35;;;;;;;14.53;81.76;99672.28;4924330;29;20059;-75
2021/07/31 02:57:52;;;;;;;3.67;3.47;;;;;;;14.48;82.02;99668.56;4954711;29;20066;-76
2021/07/31 03:00:17;;;;;;;3.70;3.60;;;;;;;14.56;81.89;99685.41;4991700;28;20045;-76
2021/07/31 03:02:43;;;;;;;3.30;3.10;;;;;;;14.54;81.64;99684.91;4980189;28;20032;-74
2021/07/31 03:09:18;;;;;;;2.70;2.60;;;;;;;14.55;81.56;99686.56;4956192;28;20105;-76
2021/07/31 03:11:43;;;;;;;3.83;3.33;;;;;;;14.54;82.16;99684.91;4980253;28;20030;-76
2021/07/31 03:14:09;;;;;;;3.47;3.28;;;;;;;14.56;81.46;99677.16;4974454;28;20042;-75
2021/07/31 03:16:36;;;;;;;4.75;3.13;;;;;;;14.45;81.65;99660.88;4952413;28;20034;-73
2021/07/31 03:19:04;;;;;;;5.53;3.65;;;;;;;14.46;81.55;99662.53;4980797;28;20031;-76
2021/07/31 03:21:30;;;;;;;3.05;2.95;;;;;;;14.44;81.26;99664.78;4977333;28;20473;-75
2021/07/31 03:23:55;;;;;;;4.97;4.07;;;;;;;14.49;81.65;99672.91;4955733;28;20031;-77
2021/07/31 03:26:31;;;;;;;;;;;;;;;;;;;;;
2021/07/31 03:28:57;;;;;;;3.28;3.10;;;;;;;14.46;82.16;99668.03;4973929;28;20070;-77
2021/07/31 03:31:23;;;;;;;4.05;3.15;;;;;;;14.46;82.25;99668.03;4978852;28;20054;-76
2021/07/31 03:33:49;;;;;;;3.88;3.58;;;;;;;14.53;81.84;99678.63;4958131;28;20031;-75
2021/07/31 03:36:15;;;;;;;3.40;3.15;;;;;;;14.56;82.07;99671.66;4978262;28;20043;-74
2021/07/31 03:41:30;;;;;;;5.78;4.25;;;;;;;14.62;82.27;99659.47;4967159;28;20047;-74
2021/07/31 03:43:56;;;;;;;4.43;3.78;;;;;;;14.58;82.25;99658.41;4942347;28;20015;-75
2021/07/31 03:46:29;;;;;;;3.67;3.13;;;;;;;14.68;82.10;99684.91;4942084;28;20077;-75
2021/07/31 03:48:54;;;;;;;2.92;2.72;;;;;;;14.71;81.83;99685.09;4949527;28;20035;-75
2021/07/31 03:54:47;;;;;;;2.70;2.50;;;;;;;14.87;81.29;99693.78;4871410;29;20020;-77
2021/07/31 03:57:15;;;;;;;3.03;2.92;;;;;;;14.87;81.58;99690.25;4964420;28;20753;-78
2021/07/31 03:59:41;;;;;;;2.72;2.50;;;;;;;14.87;81.30;99693.00;4984537;28;20069;-78
2021/07/31 04:02:13;;;;;;;6.18;2.80;;;;;;;14.92;81.43;99690.94;4950226;28;20031;-78
2021/07/31 04:04:41;;;;;;;2.97;2.85;;;;;;;14.86;80.93;99677.59;4964479;28;20062;-78
2021/07/31 04:07:09;;;;;;;3.22;3.03;;;;;;;14.96;81.21;99691.09;4966750;28;20529;-77
2021/07/31 04:09:34;;;;;;;3.20;3.00;;;;;;;14.98;81.33;99694.34;4954815;28;20058;-77
2021/07/31 04:12:00;;;;;;;2.42;2.33;;;;;;;14.99;81.06;99690.47;4983878;28;20031;-78
2021/07/31 04:14:25;;;;;;;2.97;2.78;;;;;;;14.99;81.10;99684.97;4955833;29;20027;-77
2021/07/31 04:17:07;;;;;;;3.00;2.88;;;;;;;15.07;80.85;99692.47;4951806;28;20381;-77
2021/07/31 04:19:35;;;;;;;3.15;2.85;;;;;;;15.02;80.59;99692.59;4969000;28;20397;-76
2021/07/31 04:22:04;;;;;;;3.28;3.08;;;;;;;15.09;80.61;99698.47;4966776;28;20090;-76
2021/07/31 04:24:35;;;;;;;3.50;3.40;;;;;;;15.06;80.32;99690.84;4950209;28;20074;-76
2021/07/31 04:28:03;;;;;;;2.05;1.95;;;;;;;14.92;80.36;99679.09;4967826;28;20034;-76
2021/07/31 04:30:41;;;;;;;4.65;2.25;;;;;;;15.02;80.36;99709.13;4916812;29;20058;-75
2021/07/31 04:33:14;;;;;;;2.28;2.13;;;;;;;14.82;79.78;99675.47;4952845;28;20076;-78
2021/07/31 04:35:49;;;;;;;;;;;;;;;;;;;;;
2021/07/31 04:42:38;;;;;;;;;;;;;;;;;;;;;
2021/07/31 04:45:16;;;;;;;1.77;1.77;;;;;;;14.93;79.60;99709.06;4982419;28;20134;-77
2021/07/31 04:48:07;;;;;;;3.22;3.00;;;;;;;14.83;79.65;99701.88;4962972;28;20058;-76
2021/07/31 04:50:40;;;;;;;2.90;2.80;;;;;;;14.93;80.03;99722.00;4958821;28;20493;-78
2021/07/31 04:53:14;;;;;;;2.50;2.40;;;;;;;14.92;79.49;99717.63;4968723;28;20050;-79
2021/07/31 04:55:42;;;;;;;2.45;2.35;;;;;;;14.80;79.73;99705.22;4959503;28;20023;-78
2021/07/31 04:58:26;;;;;;;3.00;2.90;;;;;;;14.85;79.67;99701.56;4971221;28;20026;-79
2021/07/31 05:00:52;;;;;;;3.63;3.42;;;;;;;14.77;79.80;99703.09;4984596;28;20493;-77
2021/07/31 05:03:17;;;;;;;6.00;5.28;;;;;;;14.75;80.00;99707.31;4980022;28;20062;-75
2021/07/31 05:05:46;;;;;;;5.07;4.85;;;;;;;14.81;80.33;99717.88;4948882;28;20018;-75
2021/07/31 05:08:12;;;;;;;7.78;7.10;;;;;;;14.81;80.30;99720.63;4985289;28;20046;-74
2021/07/31 05:10:42;;;;;;;7.47;6.82;;;;;;;14.72;80.45;99702.41;4999308;28;20030;-76
2021/07/31 05:13:12;;;;;;;8.10;7.60;;;;;;;14.81;80.79;99712.38;4978875;28;20369;-74
2021/07/31 05:15:40;;;;;;;7.95;7.43;;;;;;;14.87;80.82;99715.00;4973423;28;20038;-75
2021/07/31 05:18:06;;;;;;;9.10;8.27;;;;;;;14.85;80.85;99712.56;4950950;28;20050;-74
2021/07/31 05:20:32;;;;;;;8.15;7.65;;;;;;;14.89;80.99;99710.00;4978799;28;20026;-75
2021/07/31 05:22:59;;;;;;;7.60;6.90;;;;;;;15.00;80.31;99714.13;4996625;28;20031;-74
2021/07/31 05:25:24;;;;;;;7.97;7.57;;;;;;;15.15;80.33;99721.19;4998557;28;20116;-74
2021/07/31 05:27:50;;;;;;;7.82;7.32;;;;;;;15.12;80.22;99717.13;5002568;28;20026;-75
2021/07/31 05:30:17;;;;;;;9.93;8.05;;;;;;;15.23;80.04;99731.47;4989246;28;20035;-75
2021/07/31 05:32:43;;;;;;;8.63;8.13;;;;;;;15.27;80.24;99729.69;4994376;28;20041;-75
2021/07/31 05:35:14;;;;;;;9.45;8.82;;;;;;;15.31;80.07;99718.88;4963606;28;20022;-78
2021/07/31 05:37:40;;;;;;;8.38;7.70;;;;;;;15.48;79.83;99724.47;4968529;28;20030;-76
2021/07/31 05:40:08;;;;;;;7.57;7.18;;;;;;;15.61;79.67;99731.03;4971632;28;20037;-76
2021/07/31 05:42:34;;;;;;;6.90;6.57;;;;;;;15.66;79.76;99722.59;4996213;28;20045;-74
2021/07/31 05:45:03;;;;;;;7.85;7.35;;;;;;;15.88;79.40;99743.00;4984637;28;20026;-79
2021/07/31 05:47:29;;;;;;;6.50;6.20;;;;;;;16.01;78.83;99746.78;4991723;28;20449;-76
2021/07/31 05:49:58;;;;;;;5.57;5.28;;;;;;;16.16;78.82;99740.00;4999590;28;20030;-76
2021/07/31 05:52:28;;;;;;;6.55;6.25;;;;;;;16.18;78.37;99730.28;4985570;28;20025;-74
2021/07/31 05:54:55;;;;;;;4.80;4.60;;;;;;;16.36;78.52;99741.38;4976863;28;20434;-77
2021/07/31 05:57:20;;;;;;;5.00;4.80;;;;;;;16.49;77.84;99743.19;4987969;28;20030;-76
2021/07/31 05:59:46;;;;;;;5.35;4.95;;;;;;;16.53;77.84;99735.88;5002483;28;20081;-75
2021/07/31 06:02:12;;;;;;;4.90;4.70;;;;;;;16.61;77.68;99738.97;4984268;28;20051;-74
2021/07/31 06:04:38;;;;;;;4.38;4.18;;;;;;;16.67;77.05;99734.91;4995232;28;20038;-76
2021/07/31 06:07:15;;;;;;;4.00;3.83;;;;;;;16.67;76.83;99734.91;4976771;28;20022;-76
2021/07/31 06:09:46;;;;;;;4.15;3.95;;;;;;;16.71;76.79;99742.22;4982823;28;20058;-75
2021/07/31 06:12:14;;;;;;;3.63;3.50;;;;;;;16.72;76.64;99751.34;4985431;28;20025;-79
2021/07/31 06:14:40;;;;;;;4.40;4.03;;;;;;;16.60;76.58;99745.63;4987879;28;20030;-74
2021/07/31 06:17:08;;;;;;;3.13;3.03;;;;;;;16.51;76.32;99749.16;4964135;28;20040;-76
2021/07/31 06:19:34;;;;;;;4.25;4.00;;;;;;;16.47;76.58;99758.44;4989465;28;20026;-77
2021/07/31 06:22:01;;;;;;;3.30;3.20;;;;;;;16.37;76.62;99760.38;4983659;28;20030;-75
2021/07/31 06:24:30;;;;;;;2.60;2.50;;;;;;;16.40;76.81;99758.91;4981154;28;20054;-75
2021/07/31 06:28:07;;;;;;;3.05;2.40;;;;;;;16.31;76.73;99738.75;4998312;28;20018;-82
2021/07/31 06:30:32;;;;;;;2.60;2.50;;;;;;;16.40;77.02;99758.91;4907306;28;20044;-78
2021/07/31 06:36:42;;;;;;;2.35;2.25;;;;;;;16.29;77.15;99750.09;4925131;29;20075;-75
2021/07/31 06:39:08;;;;;;;1.60;1.50;;;;;;;16.28;77.06;99754.03;4878073;29;20036;-78
2021/07/31 06:41:34;;;;;;;5.03;2.65;;;;;;;16.34;77.19;99765.69;4965795;28;20042;-75
2021/07/31 06:44:11;;;;;;;1.77;1.60;;;;;;;16.38;77.13;99761.16;4991979;28;20061;-77
2021/07/31 06:46:51;;;;;;;;;;;;;;;;;;;;;
2021/07/31 06:49:35;;;;;;;1.48;1.38;;;;;;;16.70;76.73;99765.44;4998897;28;20094;-74
2021/07/31 06:52:29;;;;;;;1.85;1.30;;;;;;;16.99;75.73;99768.75;4967196;28;20058;-76
2021/07/31 06:54:57;;;;;;;3.63;1.25;;;;;;;17.14;75.06;99773.75;4957087;28;20069;-77
2021/07/31 06:57:25;;;;;;;3.25;1.25;;;;;;;17.28;74.41;99763.34;4985769;28;20041;-75
2021/07/31 06:59:51;;;;;;;1.23;0.93;;;;;;;17.57;74.00;99777.63;4984542;28;20042;-75
2021/07/31 07:02:17;;;;;;;3.72;1.40;;;;;;;17.74;72.68;99776.72;4993236;28;20030;-74
2021/07/31 07:04:42;;;;;;;4.78;0.95;;;;;;;17.92;72.81;99767.28;4980714;28;20030;-73
2021/07/31 07:07:08;;;;;;;1.20;0.98;;;;;;;18.14;71.50;99773.69;4995721;28;20030;-78
2021/07/31 07:09:33;;;;;;;1.02;1.02;;;;;;;18.26;70.34;99775.75;4994701;28;20054;-77
2021/07/31 07:11:58;;;;;;;1.38;1.17;;;;;;;18.33;69.90;99783.53;4956820;28;20030;-76
2021/07/31 07:14:27;;;;;;;1.95;0.98;;;;;;;18.36;69.34;99775.38;4969790;28;20034;-75
2021/07/31 07:16:53;;;;;;;1.08;0.98;;;;;;;18.55;69.71;99780.47;4973219;28;20381;-77
2021/07/31 07:19:18;;;;;;;3.28;1.40;;;;;;;18.71;68.49;99791.75;4971720;28;20042;-77
2021/07/31 07:21:44;;;;;;;0.98;0.90;;;;;;;18.70;67.55;99779.06;4998842;28;20043;-77
2021/07/31 07:24:11;;;;;;;3.25;1.25;;;;;;;18.74;67.75;99779.22;5014169;28;20476;-77
2021/07/31 07:26:37;;;;;;;3.05;0.88;;;;;;;18.77;67.26;99789.63;4976213;28;20045;-77
2021/07/31 07:29:03;;;;;;;7.82;0.77;;;;;;;18.81;66.62;99787.78;4971687;28;20034;-76
2021/07/31 07:31:32;;;;;;;2.15;0.65;;;;;;;18.85;66.48;99794.25;4955651;28;20042;-78
2021/07/31 07:34:07;;;;;;;0.60;0.60;;;;;;;18.94;66.27;99789.50;5001440;28;20040;-76
2021/07/31 07:36:35;;;;;;;1.48;0.88;;;;;;;19.22;66.24;99805.59;4998122;28;20093;-78
2021/07/31 07:39:00;;;;;;;0.80;0.80;;;;;;;19.26;64.85;99803.75;4985117;28;20041;-76
2021/07/31 07:41:26;;;;;;;0.95;0.75;;;;;;;19.27;64.91;99797.03;4967105;28;20026;-76
2021/07/31 07:43:51;;;;;;;1.88;0.50;;;;;;;19.28;64.68;99795.91;4999310;28;20034;-76
2021/07/31 07:46:19;;;;;;;1.08;0.60;;;;;;;19.38;64.77;99797.44;5003864;28;20186;-77
2021/07/31 07:48:46;;;;;;;0.70;0.70;;;;;;;19.30;64.47;99796.38;4966903;28;20424;-76
2021/07/31 07:51:11;;;;;;;0.75;0.63;;;;;;;19.24;63.71;99788.63;4976203;28;20035;-75
2021/07/31 07:53:37;;;;;;;3.22;0.60;;;;;;;19.30;63.77;99793.63;4967130;28;20031;-74
2021/07/31 07:56:06;;;;;;;0.70;0.50;;;;;;;19.40;62.62;99799.88;4981015;28;20062;-78
2021/07/31 07:58:44;;;;;;;;;;;;;;;;;;;;;
2021/07/31 08:02:06;;;;;;;0.68;0.50;;;;;;;19.80;61.68;99813.19;4993857;28;20134;-79
2021/07/31 08:04:58;;;;;;;1.33;0.57;;;;;;;20.00;60.80;99811.50;4927195;29;20036;-81
2021/07/31 08:07:26;;;;;;;1.13;0.60;;;;;;;19.90;59.87;99784.22;4977407;28;20449;-78
2021/07/31 08:09:55;;;;;;;1.75;0.60;;;;;;;19.97;58.44;99821.31;5002237;28;20050;-78
2021/07/31 08:12:23;;;;;;;1.38;0.70;;;;;;;19.86;58.40;99811.84;4989665;28;20030;-76
2021/07/31 08:14:59;;;;;;;;;;;;;;;;;;;;;
2021/07/31 08:17:27;;;;;;;0.43;0.40;;;;;;;19.89;58.62;99811.16;5011077;28;20065;-79
2021/07/31 08:20:03;;;;;;;0.45;0.43;;;;;;;19.86;58.17;99814.63;5005766;28;20186;-79
2021/07/31 08:22:37;;;;;;;3.55;0.45;;;;;;;19.86;58.75;99800.75;4980718;28;20030;-79
2021/07/31 08:28:29;;;;;;;2.50;0.70;;;;;;;20.03;57.81;99808.88;5005558;28;20053;-79
2021/07/31 08:30:58;;;;;;;0.95;0.73;;;;;;;20.16;57.48;99803.31;4991246;28;20026;-82
2021/07/31 08:34:37;;;;;;;;;;;;;;;;;;;;;
2021/07/31 08:36:52;;;;;;;0.40;0.40;;;;;;;20.15;56.46;99812.78;5012278;28;20045;-75
2021/07/31 08:39:20;;;;;;;0.52;0.52;;;;;;;20.29;57.45;99824.38;4973193;28;20023;-80
2021/07/31 08:41:49;;;;;;;0.60;0.50;;;;;;;20.25;56.64;99825.41;4993741;28;20034;-74
2021/07/31 08:44:15;;;;;;;0.90;0.70;;;;;;;20.23;56.14;99825.75;4996586;28;20030;-77
2021/07/31 08:46:44;;;;;;;0.60;0.60;;;;;;;20.22;55.65;99813.84;4990923;28;20033;-74
2021/07/31 08:49:14;;;;;;;1.00;0.70;;;;;;;20.26;55.27;99808.41;4983759;28;20022;-76
2021/07/31 08:51:40;;;;;;;1.55;0.85;;;;;;;20.47;55.43;99821.34;4984025;28;20026;-73
2021/07/31 08:54:06;;;;;;;0.52;0.52;;;;;;;20.61;54.88;99819.03;4988825;28;20105;-75
2021/07/31 08:56:32;;;;;;;0.32;0.28;;;;;;;20.88;54.51;99825.88;4995969;28;20061;-75
2021/07/31 08:59:00;;;;;;;0.73;0.43;;;;;;;21.05;54.10;99821.19;4971314;28;20031;-77
2021/07/31 09:01:26;;;;;;;1.50;0.40;;;;;;;21.16;52.39;99821.50;4974122;28;20097;-76
2021/07/31 09:04:09;;;;;;;0.50;0.40;;;;;;;21.27;52.42;99822.63;5011910;28;20026;-76
2021/07/31 09:06:34;;;;;;;0.57;0.40;;;;;;;21.31;51.84;99823.53;4989099;28;20093;-75
2021/07/31 09:09:00;;;;;;;0.68;0.68;;;;;;;21.26;53.17;99829.34;4991640;28;20101;-74
2021/07/31 09:11:27;;;;;;;0.70;0.70;;;;;;;21.26;54.21;99832.13;4968880;28;20473;-76
2021/07/31 09:14:10;;;;;;;0.60;0.60;;;;;;;21.16;55.06;99836.22;4989387;28;20031;-75
2021/07/31 09:16:36;;;;;;;0.98;0.80;;;;;;;21.02;56.24;99833.81;5008231;28;20037;-74
2021/07/31 09:19:12;;;;;;;0.93;0.90;;;;;;;20.85;56.07;99829.34;5010875;28;20432;-75
2021/07/31 09:21:40;;;;;;;1.88;0.70;;;;;;;20.83;56.42;99828.06;4992868;28;20396;-76
2021/07/31 09:24:24;;;;;;;1.00;1.00;;;;;;;20.73;56.68;99832.97;4989252;28;20011;-73
2021/07/31 09:26:52;;;;;;;1.02;0.93;;;;;;;20.60;57.28;99839.63;4984744;28;20034;-74
2021/07/31 09:29:24;;;;;;;0.75;0.75;;;;;;;20.50;57.36;99834.53;4980088;28;20030;-74
2021/07/31 09:31:54;;;;;;;4.20;0.80;;;;;;;20.27;57.55;99837.78;4985489;28;20038;-74
2021/07/31 09:34:45;;;;;;;3.88;1.00;;;;;;;20.23;58.08;99837.66;4998927;28;20102;-73
2021/07/31 09:37:17;;;;;;;1.45;0.65;;;;;;;20.32;58.60;99850.63;4999861;28;20512;-74
2021/07/31 09:40:18;;;;;;;;;;;;;;;;;;;;;
2021/07/31 09:42:44;;;;;;;0.95;0.77;;;;;;;20.81;56.83;99836.75;4983738;28;20109;-75
2021/07/31 09:45:14;;;;;;;1.40;0.60;;;;;;;21.05;55.91;99844.22;4966547;28;20054;-76
2021/07/31 09:48:01;;;;;;;3.97;0.65;;;;;;;21.43;56.04;99842.94;4991408;28;20034;-77
2021/07/31 09:50:49;;;;;;;1.98;0.73;;;;;;;21.56;55.06;99854.06;4991278;28;20475;-74
2021/07/31 09:53:17;;;;;;;0.57;0.40;;;;;;;21.45;55.26;99840.63;4993280;28;20030;-74
2021/07/31 09:55:49;;;;;;;0.70;0.52;;;;;;;21.42;55.29;99834.97;4976679;28;20468;-76
2021/07/31 09:58:23;;;;;;;1.90;0.68;;;;;;;21.43;54.82;99856.84;4987159;28;20042;-75
2021/07/31 10:00:52;;;;;;;0.45;0.45;;;;;;;21.59;55.31;99850.56;4992016;28;20034;-75
2021/07/31 10:03:21;;;;;;;1.20;0.60;;;;;;;21.51;54.52;99843.19;4991998;28;20030;-74
2021/07/31 10:05:48;;;;;;;1.55;0.98;;;;;;;21.44;54.51;99850.13;5002429;28;20037;-76
2021/07/31 10:08:14;;;;;;;0.73;0.65;;;;;;;21.38;53.96;99846.00;4975366;28;20061;-76
2021/07/31 10:10:40;;;;;;;0.70;0.55;;;;;;;21.32;52.53;99858.53;5000368;28;20022;-76
2021/07/31 10:13:06;;;;;;;0.68;0.55;;;;;;;21.22;52.99;99847.91;4996552;28;20054;-76
2021/07/31 10:15:32;;;;;;;2.78;0.60;;;;;;;21.34;53.52;99855.41;5003821;28;20053;-75
2021/07/31 10:18:10;;;;;;;0.80;0.60;;;;;;;21.47;54.03;99842.25;4999564;28;20050;-76
2021/07/31 10:20:38;;;;;;;;;;;;;;;21.85;52.92;99846.50;4979026;28;20026;-75
2021/07/31 10:23:07;;;;;;;3.47;1.38;;;;;;;21.84;52.15;99839.31;4978126;28;19914;-74
2021/07/31 10:25:33;;;;;;;0.75;0.60;;;;;;;21.95;51.73;99832.06;4948677;28;20029;-75
2021/07/31 10:28:44;;;;;;;0.63;0.60;;;;;;;22.31;51.59;99844.09;4966060;28;20062;-75
2021/07/31 10:31:28;;;;;;;1.40;1.30;;;;;;;22.98;49.72;99852.50;4994797;28;20046;-75
2021/07/31 10:33:55;;;;;;;0.68;0.57;;;;;;;23.44;49.09;99851.09;4976199;28;20037;-76
2021/07/31 10:36:34;;;;;;;0.50;0.50;;;;;;;23.93;47.16;99841.28;4998861;28;20114;-76
2021/07/31 10:39:32;;;;;;;1.55;0.65;;;;;;;24.04;46.37;99857.06;4996251;28;20109;-75
2021/07/31 10:42:02;;;;;;;0.93;0.90;;;;;;;23.74;46.29;99833.72;4982247;28;20061;-75
2021/07/31 10:44:31;;;;;;;3.40;0.63;;;;;;;23.52;46.39;99824.94;4995304;28;20167;-76
2021/07/31 10:47:22;;;;;;;0.60;0.40;;;;;;;23.53;46.55;99846.88;4992785;28;20034;-76
2021/07/31 10:49:57;;;;;;;1.13;0.50;;;;;;;23.45;46.62;99835.97;4991092;28;20046;-75
2021/07/31 10:52:57;;;;;;;1.40;0.88;;;;;;;23.77;46.40;99844.97;4961231;28;20023;-76
2021/07/31 10:55:37;;;;;;;3.25;0.55;;;;;;;23.69;45.64;99846.00;4980769;28;20034;-74
2021/07/31 10:58:04;;;;;;;0.68;0.47;;;;;;;23.45;46.10;99839.56;5001759;28;20040;-75
2021/07/31 11:00:34;;;;;;;0.47;0.40;;;;;;;23.34;46.10;99852.47;4995597;28;20034;-75
2021/07/31 11:03:03;;;;;;;1.20;0.43;;;;;;;23.18;46.46;99849.75;4982953;28;20022;-75
2021/07/31 11:05:54;;;;;;;0.90;0.52;;;;;;;23.35;47.16;99851.31;4974038;28;20152;-75
2021/07/31 11:08:23;;;;;;;1.95;1.52;;;;;;;23.48;47.57;99847.19;4976789;28;20126;-75
2021/07/31 11:10:54;;;;;;;2.38;0.60;;;;;;;23.75;47.37;99849.31;4994484;28;20042;-75
2021/07/31 11:13:23;;;;;;;0.77;0.40;;;;;;;23.87;46.75;99836.03;4990876;28;20046;-76
2021/07/31 11:16:23;;;;;;;0.80;0.57;;;;;;;24.32;45.99;99839.16;4981634;28;20121;-75
2021/07/31 11:18:58;;;;;;;0.60;0.40;;;;;;;24.34;44.66;99841.59;4990804;28;20026;-75
2021/07/31 11:21:30;;;;;;;0.57;0.38;;;;;;;24.38;42.82;99843.25;4990457;28;20035;-75
2021/07/31 11:24:14;;;;;;;0.35;0.35;;;;;;;24.27;42.47;99844.25;4970241;28;20085;-77
2021/07/31 11:26:50;;;;;;;1.88;0.40;;;;;;;24.15;42.75;99840.50;4981546;28;20041;-75
2021/07/31 11:29:25;;;;;;;0.70;0.45;;;;;;;24.39;41.96;99844.09;4977314;28;20022;-75
2021/07/31 11:31:59;;;;;;;0.70;0.40;;;;;;;24.42;42.22;99842.53;4985097;28;20023;-76
2021/07/31 11:34:25;;;;;;;0.90;0.47;;;;;;;24.47;42.86;99851.38;5002913;28;20079;-76
2021/07/31 11:36:59;;;;;;;1.42;0.30;;;;;;;24.89;41.53;99856.06;4991997;28;20073;-75
2021/07/31 11:39:25;;;;;;;1.70;0.30;;;;;;;25.43;39.71;99856.78;4990585;28;20030;-76
2021/07/31 11:42:01;;;;;;;;;;;;;;;;;;;;;
2021/07/31 11:44:29;;;;;;;0.57;0.30;;;;;;;24.43;40.25;99858.94;4983475;28;20086;-75
2021/07/31 11:47:00;;;;;;;0.52;0.28;;;;;;;23.72;41.60;99862.00;4999143;28;20034;-75
2021/07/31 11:49:33;;;;;;;1.17;0.30;;;;;;;23.16;43.69;99864.06;4999811;28;20026;-75
2021/07/31 11:52:03;;;;;;;0.75;0.40;;;;;;;22.67;45.00;99875.66;5000116;28;20030;-76
2021/07/31 11:54:40;;;;;;;0.40;0.25;;;;;;;21.93;48.35;99865.00;4982099;28;20041;-73
2021/07/31 11:57:05;;;;;;;0.40;0.28;;;;;;;21.36;48.53;99865.03;4992038;28;20101;-76
2021/07/31 11:59:39;;;;;;;3.85;0.45;;;;;;;21.09;49.52;99866.59;5001981;28;20046;-75
2021/07/31 12:02:05;;;;;;;0.45;0.40;;;;;;;20.86;50.39;99852.38;4998113;28;20088;-76
2021/07/31 12:04:46;;;;;;;2.58;0.47;;;;;;;20.83;51.36;99855.88;4980276;28;20049;-76
2021/07/31 12:07:26;;;;;;;0.22;0.22;;;;;;;20.83;52.02;99853.09;4983664;28;20101;-75
2021/07/31 12:10:05;;;;;;;1.20;0.50;;;;;;;20.97;52.26;99861.03;4975820;28;20047;-75
2021/07/31 12:12:33;;;;;;;0.30;0.30;;;;;;;21.04;52.44;99856.53;4968007;28;20042;-75
2021/07/31 12:15:23;;;;;;;0.70;0.50;;;;;;;21.37;52.06;99855.50;4972401;28;20031;-77
2021/07/31 12:17:54;;;;;;;0.85;0.60;;;;;;;21.62;51.75;99855.44;4973069;28;20014;-75
2021/07/31 12:20:31;;;;;;;2.30;0.22;;;;;;;21.84;50.92;99850.47;4987376;28;20022;-75
2021/07/31 12:22:58;;;;;;;0.98;0.45;;;;;;;22.04;51.30;99849.41;4972629;28;20035;-75
2021/07/31 12:25:23;;;;;;;0.70;0.70;;;;;;;22.43;50.16;99851.63;4973691;28;20023;-76
2021/07/31 12:28:09;;;;;;;0.55;0.40;;;;;;;23.01;50.25;99845.38;4976826;28;20355;-74
2021/07/31 12:30:34;;;;;;;4.13;0.60;;;;;;;23.76;48.36;99854.53;4972742;28;20029;-75
2021/07/31 12:33:06;;;;;;;0.45;0.40;;;;;;;24.32;46.34;99849.56;4977593;28;20113;-75
2021/07/31 12:35:45;;;;;;;1.50;0.50;;;;;;;24.94;45.14;99842.94;4980943;28;20031;-75
2021/07/31 12:38:29;;;;;;;1.88;0.57;;;;;;;25.61;42.13;99839.41;4971388;28;20035;-75
2021/07/31 12:41:02;;;;;;;1.35;0.40;;;;;;;26.35;41.39;99853.78;4942683;28;20146;-74
2021/07/31 12:43:30;;;;;;;0.28;0.20;;;;;;;26.52;37.85;99855.09;4957963;28;20031;-76
2021/07/31 12:45:59;;;;;;;0.40;0.30;;;;;;;26.20;37.50;99842.44;4981758;28;20019;-75
2021/07/31 12:48:25;;;;;;;0.73;0.47;;;;;;;26.23;37.11;99857.69;4971914;28;20473;-75
2021/07/31 12:50:51;;;;;;;1.02;0.40;;;;;;;26.54;37.27;99859.13;4958238;28;20030;-74